Old Milo, Arkansas
Current Conditions -  °F | °C
As of 8:35 AM on Tuesday 27 Jan 2015 (Local Time) from KBQP Reporting Station
Clear Clear  
Wind Chill: 11°   Ceiling: Unl
Heat Index: 11°   Visibility: 10mi
Dew Point:   Wind: 5mph
Humidity: 62%   Direction: 330°NNW
Pressure: 30.13"   Gusts: NA
Location:  33.1762°N, 91.7595°W
Report Text: KBQP 271435Z AUTO 33004KT 10SM CLR 11/04 A3013 RMK AO2 T01050036
Loading
Personal Weather Stations






























Interactive Weather Map New forecast layout! Learn more

10-Day Weather Forecast

Advertisements
Track Severe Weather on mobile